Time;durP1;ratioP1;P1;durP2;ratioP2;P2;SDS_P1;SDS_P2;PMS_P1;PMS_P2;Temp;Humidity;BMP_temperature;BMP_pressure;BME280_temperature;BME280_humidity;BME280_pressure;Samples;Min_cycle;Max_cycle;Signal;HPM_P1;HPM_P2
2021/07/29 00:01:28;;;;;;;1.67;1.58;;;22.70;58.30;;;;;;5054056;28;20163;-65
2021/07/29 00:03:54;;;;;;;1.95;1.85;;;22.80;58.40;;;;;;5054182;28;20223;-65
2021/07/29 00:06:19;;;;;;;1.88;1.70;;;22.70;58.30;;;;;;5053276;28;20217;-65
2021/07/29 00:08:45;;;;;;;2.55;1.50;;;22.70;58.30;;;;;;5054021;28;20175;-65
2021/07/29 00:11:11;;;;;;;1.52;1.42;;;22.70;58.30;;;;;;5054196;28;20240;-66
2021/07/29 00:13:38;;;;;;;1.75;1.60;;;22.70;58.30;;;;;;5053026;28;20183;-66
2021/07/29 00:16:04;;;;;;;1.60;1.50;;;22.70;58.30;;;;;;5054286;28;20245;-66
2021/07/29 00:21:14;;;;;;;2.05;1.95;;;22.70;58.30;;;;;;5053976;28;20264;-64
2021/07/29 00:23:39;;;;;;;1.88;1.60;;;22.70;58.40;;;;;;5053443;28;20716;-64
2021/07/29 00:26:05;;;;;;;3.03;1.90;;;22.70;58.40;;;;;;5052904;28;20559;-64
2021/07/29 00:28:30;;;;;;;1.90;1.60;;;22.70;58.40;;;;;;5053450;28;20197;-64
2021/07/29 00:30:56;;;;;;;2.00;1.90;;;22.70;58.50;;;;;;5053760;28;20261;-64
2021/07/29 00:33:21;;;;;;;2.55;2.05;;;22.70;58.40;;;;;;5052695;28;20281;-65
2021/07/29 00:35:47;;;;;;;1.85;1.73;;;22.70;59.10;;;;;;5053645;28;20193;-65
2021/07/29 00:38:12;;;;;;;1.80;1.70;;;22.70;58.40;;;;;;5053754;28;20225;-65
2021/07/29 00:40:38;;;;;;;1.50;1.40;;;22.70;58.40;;;;;;5052374;28;20532;-64
2021/07/29 00:43:03;;;;;;;2.00;1.90;;;22.70;58.40;;;;;;5053791;28;20211;-64
2021/07/29 00:45:29;;;;;;;1.95;1.85;;;22.70;58.50;;;;;;5053171;28;20199;-65
2021/07/29 00:47:54;;;;;;;1.70;1.60;;;22.60;58.40;;;;;;5052772;28;20180;-65
2021/07/29 00:50:20;;;;;;;1.63;1.52;;;22.60;58.50;;;;;;5053186;28;20175;-65
2021/07/29 00:52:49;;;;;;;2.05;1.85;;;22.60;58.60;;;;;;5059245;28;20243;-65
2021/07/29 00:55:14;;;;;;;1.58;1.48;;;22.60;58.60;;;;;;5071305;28;20179;-65
2021/07/29 00:57:40;;;;;;;1.52;1.40;;;22.60;58.60;;;;;;5073446;28;20228;-65
2021/07/29 01:00:06;;;;;;;1.77;1.65;;;22.60;58.60;;;;;;5073506;28;20177;-65
2021/07/29 01:02:31;;;;;;;1.85;1.67;;;22.60;58.60;;;;;;5072004;28;20206;-65
2021/07/29 01:04:57;;;;;;;2.00;1.80;;;22.60;58.60;;;;;;5072974;28;20183;-65
2021/07/29 01:07:22;;;;;;;1.70;1.60;;;22.60;58.60;;;;;;5071278;28;20283;-66
2021/07/29 01:09:48;;;;;;;2.20;1.80;;;22.60;58.70;;;;;;5072293;28;20647;-65
2021/07/29 01:12:13;;;;;;;2.05;1.80;;;22.60;58.70;;;;;;5073234;28;20668;-65
2021/07/29 01:14:39;;;;;;;1.75;1.48;;;22.60;58.70;;;;;;5072886;28;20223;-65
2021/07/29 01:17:05;;;;;;;1.73;1.63;;;22.60;58.70;;;;;;5072231;28;20265;-65
2021/07/29 01:19:30;;;;;;;2.13;1.92;;;22.60;58.70;;;;;;5072534;28;20246;-64
2021/07/29 01:21:57;;;;;;;1.63;1.48;;;22.60;58.80;;;;;;5071316;28;20190;-64
2021/07/29 01:24:23;;;;;;;1.73;1.63;;;22.60;58.70;;;;;;5072363;28;20223;-64
2021/07/29 01:26:48;;;;;;;1.98;1.70;;;22.60;58.80;;;;;;5072705;28;20301;-65
2021/07/29 01:29:14;;;;;;;1.40;1.30;;;22.50;58.70;;;;;;5071577;28;20273;-64
2021/07/29 01:31:39;;;;;;;1.65;1.55;;;22.60;58.80;;;;;;5072294;28;20307;-65
2021/07/29 01:34:05;;;;;;;3.03;1.60;;;22.60;58.80;;;;;;5072677;28;20171;-65
2021/07/29 01:36:33;;;;;;;1.83;1.67;;;22.60;58.80;;;;;;5071682;28;20208;-65
2021/07/29 01:38:58;;;;;;;2.38;1.48;;;22.50;58.80;;;;;;5072418;28;20525;-66
2021/07/29 01:41:24;;;;;;;1.50;1.40;;;22.60;58.80;;;;;;5072340;28;20627;-65
2021/07/29 01:43:49;;;;;;;1.63;1.52;;;22.60;58.80;;;;;;5071763;28;20633;-67
2021/07/29 01:46:15;;;;;;;1.70;1.60;;;22.50;58.80;;;;;;5072493;28;20220;-65
2021/07/29 01:48:40;;;;;;;2.85;1.65;;;22.50;58.90;;;;;;5072406;28;20171;-65
2021/07/29 01:51:06;;;;;;;1.90;1.58;;;22.60;58.90;;;;;;5071491;28;20539;-65
2021/07/29 01:53:31;;;;;;;1.55;1.45;;;22.50;58.80;;;;;;5059618;28;20182;-65
2021/07/29 01:55:57;;;;;;;2.00;1.80;;;22.60;58.90;;;;;;5052443;28;20191;-65
2021/07/29 01:58:22;;;;;;;1.35;1.25;;;22.50;58.80;;;;;;5051158;28;20182;-65
2021/07/29 02:00:49;;;;;;;1.90;1.70;;;22.50;58.80;;;;;;5052029;28;20668;-65
2021/07/29 02:03:15;;;;;;;1.73;1.40;;;22.50;58.80;;;;;;5052238;28;20293;-65
2021/07/29 02:05:40;;;;;;;1.75;1.45;;;22.50;58.80;;;;;;5051328;28;20301;-65
2021/07/29 02:08:06;;;;;;;2.85;1.73;;;22.50;58.90;;;;;;5051672;28;20257;-65
2021/07/29 02:10:31;;;;;;;2.83;2.15;;;22.50;58.80;;;;;;5051730;28;20183;-64
2021/07/29 02:12:57;;;;;;;1.20;1.10;;;22.50;58.90;;;;;;5051114;28;20189;-65
2021/07/29 02:15:23;;;;;;;1.65;1.42;;;22.50;58.90;;;;;;5051782;28;20579;-65
2021/07/29 02:17:48;;;;;;;1.52;1.42;;;22.50;58.90;;;;;;5051906;28;20178;-66
2021/07/29 02:20:14;;;;;;;1.52;1.42;;;22.50;58.90;;;;;;5051028;28;20174;-65
2021/07/29 02:22:42;;;;;;;1.60;1.50;;;22.50;58.90;;;;;;5051328;28;20206;-64
2021/07/29 02:25:12;;;;;;;1.60;1.30;;;22.50;58.90;;;;;;5051090;28;20222;-64
2021/07/29 02:27:37;;;;;;;2.25;1.52;;;22.50;58.90;;;;;;5051319;28;20182;-64
2021/07/29 02:30:03;;;;;;;2.33;1.50;;;22.50;59.00;;;;;;5051735;28;20175;-64
2021/07/29 02:32:28;;;;;;;1.58;1.40;;;22.50;59.00;;;;;;5050734;28;20186;-65
2021/07/29 02:34:54;;;;;;;1.20;1.10;;;22.50;59.00;;;;;;5051762;28;20183;-65
2021/07/29 02:37:23;;;;;;;1.58;1.30;;;22.50;59.00;;;;;;5051062;28;20225;-65
2021/07/29 02:39:48;;;;;;;1.83;1.38;;;22.50;59.00;;;;;;5050904;28;20175;-65
2021/07/29 02:42:14;;;;;;;1.33;1.23;;;22.50;59.00;;;;;;5050572;28;20278;-65
2021/07/29 02:44:39;;;;;;;1.88;1.70;;;22.50;59.00;;;;;;5051098;28;20591;-64
2021/07/29 02:47:05;;;;;;;1.10;1.10;;;22.50;59.10;;;;;;5050994;28;20186;-65
2021/07/29 02:49:30;;;;;;;1.40;1.23;;;22.50;59.10;;;;;;5051157;28;20262;-65
2021/07/29 02:51:56;;;;;;;1.45;1.35;;;22.50;59.10;;;;;;5051328;28;20199;-65
2021/07/29 02:54:21;;;;;;;1.50;1.40;;;22.50;59.20;;;;;;5069478;28;20175;-65
2021/07/29 02:56:47;;;;;;;1.42;1.30;;;22.50;59.20;;;;;;5071561;28;20197;-65
2021/07/29 02:59:13;;;;;;;1.38;1.20;;;22.40;59.10;;;;;;5071427;28;20166;-65
2021/07/29 03:01:38;;;;;;;1.50;1.30;;;22.40;59.10;;;;;;5070353;28;20183;-65
2021/07/29 03:04:04;;;;;;;1.25;1.15;;;22.40;59.20;;;;;;5071053;28;20210;-65
2021/07/29 03:06:30;;;;;;;1.40;1.30;;;22.40;59.10;;;;;;5070664;28;20230;-65
2021/07/29 03:08:55;;;;;;;1.50;1.40;;;22.40;59.10;;;;;;5070733;28;20193;-66
2021/07/29 03:11:21;;;;;;;1.45;1.35;;;22.40;59.20;;;;;;5071049;28;20178;-65
2021/07/29 03:13:49;;;;;;;1.80;1.42;;;22.40;59.20;;;;;;5071095;28;20174;-65
2021/07/29 03:16:14;;;;;;;1.55;1.30;;;22.40;59.20;;;;;;5070441;28;20178;-65
2021/07/29 03:18:40;;;;;;;1.77;1.48;;;22.40;59.20;;;;;;5070710;28;20604;-64
2021/07/29 03:21:06;;;;;;;2.15;1.42;;;22.40;59.30;;;;;;5071073;28;20276;-64
2021/07/29 03:23:32;;;;;;;1.33;1.23;;;22.40;59.30;;;;;;5070194;28;20274;-64
2021/07/29 03:25:58;;;;;;;1.50;1.40;;;22.40;59.30;;;;;;5071221;28;20287;-64
2021/07/29 03:28:23;;;;;;;1.42;1.25;;;22.40;59.30;;;;;;5070640;28;20186;-64
2021/07/29 03:30:50;;;;;;;1.30;1.20;;;22.40;59.20;;;;;;5070919;28;20698;-64
2021/07/29 03:33:15;;;;;;;2.00;1.40;;;22.40;59.30;;;;;;5070808;28;20174;-65
2021/07/29 03:35:41;;;;;;;1.30;1.20;;;22.40;59.30;;;;;;5070223;28;20224;-65
2021/07/29 03:38:07;;;;;;;1.67;1.33;;;22.40;59.30;;;;;;5071079;28;20707;-64
2021/07/29 03:40:33;;;;;;;1.73;1.50;;;22.30;59.30;;;;;;5070754;28;20192;-64
2021/07/29 03:43:01;;;;;;;1.20;1.10;;;22.40;59.30;;;;;;5070397;28;20213;-64
2021/07/29 03:45:30;;;;;;;1.60;1.23;;;22.30;59.20;;;;;;5070803;28;20333;-64
2021/07/29 03:47:56;;;;;;;2.70;1.73;;;22.40;59.30;;;;;;5070892;28;20178;-64
2021/07/29 03:50:22;;;;;;;1.33;1.20;;;22.30;59.30;;;;;;5069804;28;20254;-64
2021/07/29 03:52:48;;;;;;;1.38;1.20;;;22.40;59.40;;;;;;5066362;28;20626;-65
2021/07/29 03:55:13;;;;;;;2.30;1.50;;;22.40;59.40;;;;;;5054754;28;20254;-64
2021/07/29 03:57:39;;;;;;;2.50;1.55;;;22.30;59.30;;;;;;5053407;28;20174;-65
2021/07/29 04:00:05;;;;;;;1.02;1.00;;;22.30;59.30;;;;;;5054483;28;20171;-65
2021/07/29 04:02:30;;;;;;;1.30;1.20;;;22.30;59.30;;;;;;5054013;28;20297;-65
2021/07/29 04:04:56;;;;;;;1.30;1.20;;;22.40;59.40;;;;;;5053380;28;20179;-65
2021/07/29 04:07:21;;;;;;;1.63;1.23;;;22.30;59.30;;;;;;5053587;28;20535;-65
2021/07/29 04:09:47;;;;;;;1.55;1.30;;;22.30;59.40;;;;;;5054303;28;20168;-65
2021/07/29 04:12:12;;;;;;;1.33;1.05;;;22.30;59.40;;;;;;5053349;28;20175;-65
2021/07/29 04:14:40;;;;;;;1.40;1.30;;;22.30;59.40;;;;;;5053834;28;20184;-64
2021/07/29 04:17:06;;;;;;;1.30;1.20;;;22.30;59.40;;;;;;5053930;28;20171;-64
2021/07/29 04:19:32;;;;;;;1.98;1.23;;;22.30;59.40;;;;;;5052939;28;20194;-64
2021/07/29 04:21:58;;;;;;;1.58;1.48;;;22.30;59.40;;;;;;5054166;28;20171;-63
2021/07/29 04:24:26;;;;;;;2.20;1.30;;;22.30;59.40;;;;;;5053758;28;20301;-63
2021/07/29 04:26:54;;;;;;;1.55;1.02;;;22.30;59.40;;;;;;5053081;28;20574;-63
2021/07/29 04:29:19;;;;;;;2.60;1.38;;;22.30;59.50;;;;;;5053569;28;20255;-64
2021/07/29 04:31:45;;;;;;;1.40;1.30;;;22.30;59.40;;;;;;5053324;28;20271;-64
2021/07/29 04:34:10;;;;;;;1.60;1.50;;;22.30;59.50;;;;;;5053575;28;20171;-64
2021/07/29 04:36:39;;;;;;;2.28;1.58;;;22.30;59.50;;;;;;5053397;28;20278;-64
2021/07/29 04:39:06;;;;;;;1.60;1.50;;;22.30;59.50;;;;;;5052880;28;20179;-64
2021/07/29 04:41:32;;;;;;;3.13;1.45;;;22.30;59.50;;;;;;5053342;28;20187;-64
2021/07/29 04:43:57;;;;;;;1.67;1.35;;;22.30;59.60;;;;;;5053268;28;20219;-64
2021/07/29 04:46:23;;;;;;;1.73;1.30;;;22.30;59.60;;;;;;5052607;28;20178;-64
2021/07/29 04:48:48;;;;;;;1.20;1.10;;;22.30;59.60;;;;;;5053873;28;20179;-64
2021/07/29 04:51:14;;;;;;;2.83;1.55;;;22.30;59.60;;;;;;5052999;28;20525;-64
2021/07/29 04:53:39;;;;;;;1.83;1.42;;;22.30;59.60;;;;;;5065348;28;20174;-64
2021/07/29 04:56:05;;;;;;;1.50;1.40;;;22.30;59.60;;;;;;5073274;28;20175;-64
2021/07/29 04:58:30;;;;;;;1.70;1.55;;;22.30;59.60;;;;;;5072754;28;20269;-64
2021/07/29 05:00:56;;;;;;;1.73;1.35;;;22.30;59.70;;;;;;5072370;28;20181;-64
2021/07/29 05:03:22;;;;;;;1.80;1.40;;;22.30;59.70;;;;;;5071863;28;20207;-64
2021/07/29 05:05:48;;;;;;;1.25;1.10;;;22.20;59.70;;;;;;5070909;28;20185;-64
2021/07/29 05:08:13;;;;;;;1.70;1.30;;;22.30;59.70;;;;;;5071685;28;20214;-64
2021/07/29 05:10:39;;;;;;;1.35;1.25;;;22.30;59.70;;;;;;5072538;28;20179;-64
2021/07/29 05:13:04;;;;;;;2.75;1.50;;;22.30;59.70;;;;;;5072493;28;20187;-64
2021/07/29 05:15:30;;;;;;;2.30;1.35;;;22.30;59.60;;;;;;5071671;28;20629;-63
2021/07/29 05:17:55;;;;;;;0.98;0.98;;;22.30;59.60;;;;;;5072716;28;20178;-63
2021/07/29 05:20:21;;;;;;;1.48;1.33;;;22.30;59.60;;;;;;5072313;28;20178;-64
2021/07/29 05:22:47;;;;;;;1.45;1.30;;;22.30;59.60;;;;;;5071728;28;20755;-63
2021/07/29 05:25:12;;;;;;;1.48;1.35;;;22.30;59.60;;;;;;5072655;28;20385;-64
2021/07/29 05:27:38;;;;;;;1.08;0.95;;;22.30;59.60;;;;;;5072062;28;20189;-64
2021/07/29 05:30:04;;;;;;;2.15;1.33;;;22.30;59.50;;;;;;5071619;28;20170;-64
2021/07/29 05:32:50;;;;;;;1.88;1.23;;;22.30;59.90;;;;;;5071837;28;20171;-63
2021/07/29 05:35:16;;;;;;;1.85;1.30;;;22.40;59.60;;;;;;5070625;28;20213;-64
2021/07/29 05:37:41;;;;;;;1.83;1.10;;;22.30;59.60;;;;;;5072240;28;20170;-64
2021/07/29 05:40:07;;;;;;;1.70;0.90;;;22.30;59.60;;;;;;5071944;28;20273;-64
2021/07/29 05:42:33;;;;;;;2.58;1.38;;;22.30;59.60;;;;;;5070987;28;20618;-64
2021/07/29 05:45:00;;;;;;;1.83;1.40;;;22.30;59.60;;;;;;5054004;28;20602;-64
2021/07/29 05:47:25;;;;;;;1.63;1.40;;;22.40;59.60;;;;;;5071887;28;20204;-64
2021/07/29 05:49:51;;;;;;;1.73;1.23;;;22.40;59.60;;;;;;5071297;28;20174;-64
2021/07/29 05:52:16;;;;;;;1.92;1.20;;;22.40;59.60;;;;;;5069883;28;20178;-65
2021/07/29 05:54:42;;;;;;;1.80;1.55;;;22.40;59.60;;;;;;5052058;28;20182;-65
2021/07/29 05:57:07;;;;;;;1.70;1.23;;;22.30;59.60;;;;;;5051185;28;20179;-65
2021/07/29 05:59:33;;;;;;;1.58;1.33;;;22.40;59.60;;;;;;5051554;28;20217;-65
2021/07/29 06:01:58;;;;;;;2.00;1.38;;;22.40;59.70;;;;;;5052018;28;20179;-65
2021/07/29 06:04:24;;;;;;;1.20;1.10;;;22.30;59.70;;;;;;5050975;28;20236;-65
2021/07/29 06:06:49;;;;;;;1.52;1.27;;;22.30;59.70;;;;;;5051599;28;20219;-66
2021/07/29 06:09:15;;;;;;;2.10;1.27;;;22.30;59.70;;;;;;5051757;28;20178;-65
2021/07/29 06:11:40;;;;;;;2.13;1.30;;;22.30;59.70;;;;;;5050948;28;20182;-65
2021/07/29 06:14:06;;;;;;;2.47;1.50;;;22.30;59.70;;;;;;5051562;28;20168;-65
2021/07/29 06:16:31;;;;;;;1.92;1.50;;;22.30;59.70;;;;;;5051167;28;20174;-65
2021/07/29 06:19:08;;;;;;;1.35;1.25;;;22.40;59.70;;;;;;5050776;28;20497;-64
2021/07/29 06:21:34;;;;;;;1.77;1.42;;;22.40;59.70;;;;;;5050272;28;20179;-64
2021/07/29 06:23:59;;;;;;;2.55;1.40;;;22.30;59.70;;;;;;5051320;28;20211;-63
2021/07/29 06:26:25;;;;;;;1.35;1.23;;;22.30;59.70;;;;;;5050417;28;20301;-64
2021/07/29 06:28:50;;;;;;;2.08;1.38;;;22.30;59.70;;;;;;5051324;28;20202;-64
2021/07/29 06:31:16;;;;;;;1.35;1.02;;;22.40;59.70;;;;;;5050809;28;20171;-65
2021/07/29 06:33:41;;;;;;;2.72;1.35;;;22.40;59.70;;;;;;5051346;28;20182;-65
2021/07/29 06:36:07;;;;;;;2.80;1.52;;;22.30;59.60;;;;;;5051339;28;20202;-64
2021/07/29 06:38:32;;;;;;;2.83;1.38;;;22.30;59.60;;;;;;5050042;28;20179;-64
2021/07/29 06:40:58;;;;;;;2.08;1.38;;;22.40;59.60;;;;;;5051164;28;20182;-63
2021/07/29 06:43:23;;;;;;;1.92;1.35;;;22.40;59.60;;;;;;5050674;28;20306;-64
2021/07/29 06:45:49;;;;;;;1.67;1.33;;;22.40;59.60;;;;;;5050608;28;20262;-64
2021/07/29 06:48:16;;;;;;;1.83;1.60;;;22.40;59.50;;;;;;5051278;28;20187;-64
2021/07/29 06:50:42;;;;;;;1.80;1.40;;;22.40;59.40;;;;;;5051242;28;20171;-64
2021/07/29 06:53:08;;;;;;;1.38;1.27;;;22.40;59.30;;;;;;5059299;28;20221;-64
2021/07/29 06:55:33;;;;;;;2.10;1.60;;;22.40;59.30;;;;;;5071178;28;20544;-64
2021/07/29 06:57:59;;;;;;;1.77;1.30;;;22.50;59.20;;;;;;5070925;28;20583;-65
2021/07/29 07:00:24;;;;;;;2.17;1.50;;;22.50;59.10;;;;;;5070318;28;20182;-64
2021/07/29 07:02:52;;;;;;;1.83;1.20;;;22.50;59.00;;;;;;5070957;28;20241;-64
2021/07/29 07:05:18;;;;;;;2.25;1.50;;;22.50;59.10;;;;;;5070742;28;20174;-64
2021/07/29 07:07:43;;;;;;;1.88;1.60;;;22.50;59.00;;;;;;5070081;28;20291;-65
2021/07/29 07:10:09;;;;;;;1.42;1.30;;;22.50;59.00;;;;;;5070851;28;20526;-64
2021/07/29 07:12:36;;;;;;;2.92;1.35;;;22.50;59.10;;;;;;5070778;28;20201;-64
2021/07/29 07:15:02;;;;;;;3.65;2.05;;;22.50;59.00;;;;;;5070554;28;20261;-65
2021/07/29 07:17:27;;;;;;;1.92;1.50;;;22.60;59.00;;;;;;5070592;28;20286;-65
2021/07/29 07:19:57;;;;;;;2.55;1.50;;;22.60;59.00;;;;;;5070941;28;20167;-70
2021/07/29 07:22:23;;;;;;;3.22;1.70;;;22.60;59.10;;;;;;5069885;28;20624;-65
2021/07/29 07:24:49;;;;;;;3.60;1.33;;;22.60;59.20;;;;;;5070689;28;20200;-66
2021/07/29 07:27:14;;;;;;;4.55;1.50;;;22.60;59.20;;;;;;5071796;28;20178;-69
2021/07/29 07:29:40;;;;;;;2.30;1.50;;;22.70;59.30;;;;;;5073760;28;20498;-72
2021/07/29 07:32:06;;;;;;;4.43;1.88;;;22.60;59.20;;;;;;5074974;28;20175;-71
2021/07/29 07:34:31;;;;;;;2.25;1.92;;;22.60;59.20;;;;;;5074427;28;20178;-69
2021/07/29 07:36:58;;;;;;;2.67;1.65;;;22.70;59.20;;;;;;5073838;28;20198;-69
2021/07/29 07:39:23;;;;;;;6.03;1.90;;;22.60;59.20;;;;;;5074107;28;20692;-70
2021/07/29 07:41:49;;;;;;;3.10;1.45;;;22.70;59.30;;;;;;5073759;28;20198;-70
2021/07/29 07:44:14;;;;;;;2.65;1.80;;;22.70;59.30;;;;;;5074517;28;20206;-69
2021/07/29 07:46:40;;;;;;;2.60;1.60;;;22.70;59.30;;;;;;5074118;28;20663;-69
2021/07/29 07:49:05;;;;;;;4.43;2.20;;;22.70;59.40;;;;;;5073582;28;20171;-69
2021/07/29 07:51:31;;;;;;;5.82;2.08;;;22.70;59.30;;;;;;5073898;28;20175;-69
2021/07/29 07:53:56;;;;;;;4.95;1.63;;;22.70;59.20;;;;;;5058428;28;20537;-68
2021/07/29 07:56:22;;;;;;;4.20;1.70;;;22.60;59.30;;;;;;5053071;28;20190;-68
2021/07/29 07:58:47;;;;;;;3.50;1.92;;;22.60;59.40;;;;;;5054281;28;20231;-69
2021/07/29 08:01:15;;;;;;;5.55;2.28;;;22.60;59.40;;;;;;5054059;28;20172;-70
2021/07/29 08:03:40;;;;;;;3.10;1.80;;;22.70;59.30;;;;;;5052947;28;20227;-71
2021/07/29 08:06:06;;;;;;;2.63;1.63;;;22.70;59.20;;;;;;5054095;28;20186;-69
2021/07/29 08:08:31;;;;;;;3.30;2.08;;;22.70;59.20;;;;;;5053729;28;20518;-70
2021/07/29 08:10:57;;;;;;;2.90;1.65;;;22.70;59.20;;;;;;5053261;28;20179;-70
2021/07/29 08:13:22;;;;;;;3.65;1.77;;;22.70;59.20;;;;;;5053603;28;20232;-71
2021/07/29 08:15:48;;;;;;;5.15;2.00;;;22.80;59.20;;;;;;5053720;28;20163;-69
2021/07/29 08:18:13;;;;;;;3.08;1.67;;;22.70;59.20;;;;;;5053118;28;20236;-67
2021/07/29 08:20:41;;;;;;;3.80;1.85;;;22.80;59.20;;;;;;5053468;28;20175;-68
2021/07/29 08:23:06;;;;;;;3.38;1.85;;;22.70;59.20;;;;;;5053434;28;20214;-68
2021/07/29 08:25:32;;;;;;;4.22;2.03;;;22.80;59.20;;;;;;5052788;28;20618;-69
2021/07/29 08:27:57;;;;;;;4.72;2.00;;;22.80;59.10;;;;;;5053016;28;20638;-67
2021/07/29 08:30:23;;;;;;;4.43;2.20;;;22.80;59.10;;;;;;5053229;28;20259;-67
2021/07/29 08:32:48;;;;;;;6.50;2.35;;;22.90;59.00;;;;;;5052925;28;20277;-69
2021/07/29 08:35:14;;;;;;;4.65;1.80;;;22.90;58.80;;;;;;5053598;28;20290;-69
2021/07/29 08:37:46;;;;;;;4.28;1.80;;;22.90;58.80;;;;;;5053166;28;20248;-66
2021/07/29 08:40:16;;;;;;;3.65;2.17;;;23.00;58.80;;;;;;5052646;28;20187;-68
2021/07/29 08:42:41;;;;;;;7.30;1.92;;;23.00;58.80;;;;;;5053450;28;20279;-66
2021/07/29 08:45:08;;;;;;;4.47;2.20;;;23.10;58.80;;;;;;5052830;28;20695;-68
2021/07/29 08:47:36;;;;;;;3.67;1.73;;;23.10;58.70;;;;;;5053398;28;20187;-66
2021/07/29 08:50:04;;;;;;;4.63;2.20;;;23.00;58.90;;;;;;5053497;28;20168;-67
2021/07/29 08:52:30;;;;;;;3.80;2.15;;;23.10;58.90;;;;;;5055471;28;20566;-68
2021/07/29 08:54:55;;;;;;;3.58;1.83;;;23.10;59.00;;;;;;5073613;28;20183;-68
2021/07/29 08:57:31;;;;;;;3.15;1.88;;;23.10;59.10;;;;;;5072882;28;20531;-68
2021/07/29 08:59:56;;;;;;;3.25;2.10;;;23.10;58.90;;;;;;5072390;28;20261;-68
2021/07/29 09:02:25;;;;;;;4.95;2.13;;;23.10;58.80;;;;;;5072549;28;20755;-68
2021/07/29 09:05:17;;;;;;;9.07;2.30;;;23.20;58.70;;;;;;5066269;28;20197;-67
2021/07/29 09:08:04;;;;;;;4.75;2.00;;;23.20;59.00;;;;;;5030726;28;20223;-67
2021/07/29 09:10:30;;;;;;;3.38;1.98;;;23.20;58.80;;;;;;5029203;28;20189;-67
2021/07/29 09:13:18;;;;;;;4.88;2.00;;;23.30;58.80;;;;;;5044016;28;20167;-69
2021/07/29 09:15:44;;;;;;;4.15;1.90;;;23.30;58.80;;;;;;5049785;28;20188;-69
2021/07/29 09:18:10;;;;;;;3.00;1.83;;;23.30;58.80;;;;;;5041322;28;20183;-69
2021/07/29 09:20:36;;;;;;;4.65;1.83;;;23.30;58.80;;;;;;5031935;28;20179;-67
2021/07/29 09:23:15;;;;;;;4.45;2.25;;;23.30;58.80;;;;;;5045205;28;20513;-68
2021/07/29 09:25:41;;;;;;;2.42;1.90;;;23.20;58.90;;;;;;5052365;28;20179;-71
2021/07/29 09:28:07;;;;;;;3.67;1.77;;;23.30;58.80;;;;;;5033784;28;20178;-69
2021/07/29 09:30:32;;;;;;;2.92;1.73;;;23.40;58.70;;;;;;5052542;28;20178;-67
2021/07/29 09:33:06;;;;;;;3.92;1.95;;;23.30;58.60;;;;;;5052425;28;20175;-67
2021/07/29 09:35:31;;;;;;;3.67;1.83;;;23.40;59.40;;;;;;5051407;28;20765;-67
2021/07/29 09:37:58;;;;;;;4.63;1.83;;;23.40;58.80;;;;;;5052411;28;20211;-67
2021/07/29 09:40:23;;;;;;;4.57;2.08;;;23.40;58.80;;;;;;5034279;28;20194;-67
2021/07/29 09:43:10;;;;;;;3.40;1.92;;;23.40;58.70;;;;;;5051439;28;20661;-66
2021/07/29 09:45:35;;;;;;;2.47;1.60;;;23.40;58.70;;;;;;5052020;28;20268;-67
2021/07/29 09:48:01;;;;;;;4.68;2.10;;;23.40;58.60;;;;;;5051848;28;20206;-68
2021/07/29 09:50:27;;;;;;;4.93;2.25;;;23.50;58.60;;;;;;5032742;28;20249;-67
2021/07/29 09:52:52;;;;;;;3.75;2.17;;;23.50;58.60;;;;;;5040730;28;20628;-69
2021/07/29 09:55:19;;;;;;;5.00;2.28;;;23.50;58.60;;;;;;5071162;28;20174;-68
2021/07/29 09:57:44;;;;;;;4.70;1.80;;;23.50;58.40;;;;;;5070774;28;20392;-69
2021/07/29 10:00:10;;;;;;;3.55;1.98;;;23.50;58.40;;;;;;5071837;28;20644;-67
2021/07/29 10:02:36;;;;;;;3.80;2.00;;;23.40;58.30;;;;;;5070744;28;20202;-68
2021/07/29 10:05:01;;;;;;;4.53;2.25;;;23.40;58.40;;;;;;5070550;28;20170;-68
2021/07/29 10:07:32;;;;;;;13.10;2.65;;;23.40;58.40;;;;;;5071110;28;20218;-68
2021/07/29 10:09:58;;;;;;;7.00;2.22;;;23.40;58.50;;;;;;5069605;28;20529;-68
2021/07/29 10:12:25;;;;;;;4.07;1.77;;;23.40;58.60;;;;;;5071252;28;20644;-68
2021/07/29 10:14:52;;;;;;;5.10;2.05;;;23.40;58.60;;;;;;5053651;28;20573;-67
2021/07/29 10:17:20;;;;;;;3.15;1.65;;;23.40;58.70;;;;;;5070610;28;20179;-68
2021/07/29 10:20:10;;;;;;;3.05;1.80;;;23.30;58.80;;;;;;5070209;28;20705;-69
2021/07/29 10:22:36;;;;;;;8.18;2.17;;;23.30;58.90;;;;;;5071374;28;20209;-70
2021/07/29 10:25:01;;;;;;;5.18;2.00;;;23.20;59.00;;;;;;5070906;28;20170;-71
2021/07/29 10:27:27;;;;;;;4.95;2.00;;;23.20;58.90;;;;;;5071269;28;20167;-71
2021/07/29 10:29:52;;;;;;;4.20;1.85;;;23.20;58.80;;;;;;5071384;28;20171;-71
2021/07/29 10:32:21;;;;;;;5.10;1.92;;;23.20;58.60;;;;;;5070299;28;20162;-70
2021/07/29 10:34:50;;;;;;;5.32;2.28;;;23.30;58.60;;;;;;5053372;28;20174;-72
2021/07/29 10:37:15;;;;;;;4.65;2.28;;;23.20;58.50;;;;;;5071248;28;20209;-72
2021/07/29 10:39:58;;;;;;;3.88;1.90;;;23.10;58.40;;;;;;5052613;28;20210;-72
2021/07/29 10:42:24;;;;;;;5.35;1.90;;;23.10;58.20;;;;;;5070808;28;20174;-70
2021/07/29 10:44:50;;;;;;;5.30;1.90;;;23.10;58.10;;;;;;5070373;28;20182;-70
2021/07/29 10:47:33;;;;;;;5.25;2.10;;;23.00;58.00;;;;;;5069628;28;20174;-71
2021/07/29 10:50:01;;;;;;;5.20;2.22;;;23.00;57.80;;;;;;5071231;28;20178;-70
2021/07/29 10:52:29;;;;;;;4.85;2.33;;;23.00;57.90;;;;;;5067027;28;20250;-70
2021/07/29 10:54:54;;;;;;;4.65;1.95;;;23.00;57.80;;;;;;5051180;28;20186;-71
2021/07/29 10:57:20;;;;;;;5.35;2.00;;;23.00;57.40;;;;;;5032818;28;20183;-70
2021/07/29 10:59:45;;;;;;;4.57;2.35;;;23.00;57.60;;;;;;5050424;28;20236;-71
2021/07/29 11:02:15;;;;;;;5.10;2.03;;;22.90;57.40;;;;;;5050144;28;20595;-69
2021/07/29 11:04:58;;;;;;;3.47;2.00;;;22.90;57.40;;;;;;5051151;28;20183;-63
2021/07/29 11:07:24;;;;;;;4.60;2.13;;;22.90;57.30;;;;;;5049992;28;20226;-68
2021/07/29 11:10:07;;;;;;;6.13;2.30;;;22.90;57.20;;;;;;5049619;28;20172;-68
2021/07/29 11:12:35;;;;;;;9.15;2.47;;;22.90;57.50;;;;;;5049690;28;20179;-68
2021/07/29 11:15:01;;;;;;;3.75;2.33;;;22.90;57.20;;;;;;5050579;28;20296;-66
2021/07/29 11:17:27;;;;;;;8.57;2.55;;;23.00;57.10;;;;;;5048693;28;20257;-64
2021/07/29 11:19:52;;;;;;;7.30;2.55;;;23.10;57.00;;;;;;5017565;28;20183;-65
2021/07/29 11:22:18;;;;;;;5.97;2.33;;;23.10;56.90;;;;;;5030274;28;20544;-65
2021/07/29 11:24:43;;;;;;;4.45;2.08;;;23.20;57.00;;;;;;5031088;28;20184;-64
2021/07/29 11:27:13;;;;;;;6.47;1.85;;;23.20;56.90;;;;;;5030398;28;20203;-64
2021/07/29 11:29:53;;;;;;;5.03;2.13;;;23.30;57.00;;;;;;5030486;28;20212;-64
2021/07/29 11:32:21;;;;;;;7.18;2.42;;;23.30;57.20;;;;;;5030545;28;20176;-65
2021/07/29 11:34:57;;;;;;;6.40;2.42;;;23.20;57.20;;;;;;5030069;28;20676;-65
2021/07/29 11:37:23;;;;;;;3.95;2.05;;;23.20;57.30;;;;;;5030803;28;20171;-65
2021/07/29 11:39:49;;;;;;;4.85;2.22;;;23.20;57.50;;;;;;5013256;28;20180;-66
2021/07/29 11:42:14;;;;;;;5.53;2.25;;;23.10;57.60;;;;;;5012359;28;20637;-67
2021/07/29 11:44:44;;;;;;;4.30;2.22;;;23.10;57.70;;;;;;5030349;28;20184;-68
2021/07/29 11:47:09;;;;;;;4.68;2.47;;;23.10;58.40;;;;;;5030731;28;20630;-68
2021/07/29 11:49:48;;;;;;;5.00;2.50;;;23.10;57.80;;;;;;5029612;28;20238;-68
2021/07/29 11:52:14;;;;;;;4.32;2.47;;;23.10;57.90;;;;;;5033385;28;20544;-68
2021/07/29 11:54:39;;;;;;;6.03;2.45;;;23.10;58.00;;;;;;5070432;28;20171;-68
2021/07/29 11:57:05;;;;;;;7.70;2.33;;;23.10;58.00;;;;;;5069955;28;20190;-68
2021/07/29 11:59:37;;;;;;;3.58;2.00;;;23.10;58.00;;;;;;5070444;28;20272;-67
2021/07/29 12:02:03;;;;;;;5.95;2.22;;;23.10;57.80;;;;;;5069680;28;20174;-67
2021/07/29 12:04:30;;;;;;;4.47;2.10;;;23.20;57.90;;;;;;5070168;28;20218;-67
2021/07/29 12:06:55;;;;;;;3.22;2.10;;;23.20;57.70;;;;;;5070297;28;20226;-67
2021/07/29 12:09:21;;;;;;;3.97;1.85;;;23.20;57.70;;;;;;5051321;28;20244;-67
2021/07/29 12:11:46;;;;;;;5.45;2.15;;;23.30;57.70;;;;;;5052265;28;20685;-68
2021/07/29 12:14:13;;;;;;;2.90;1.80;;;23.30;57.60;;;;;;5054115;28;20178;-68
2021/07/29 12:16:43;;;;;;;3.13;2.13;;;23.40;57.60;;;;;;5071465;28;20479;-67
2021/07/29 12:19:08;;;;;;;3.38;2.08;;;23.40;57.50;;;;;;5073569;28;20609;-66
2021/07/29 12:21:34;;;;;;;4.07;1.77;;;23.50;57.50;;;;;;5073384;28;20189;-67
2021/07/29 12:23:59;;;;;;;3.60;1.90;;;23.50;57.50;;;;;;5072761;28;20210;-66
2021/07/29 12:26:25;;;;;;;5.40;2.70;;;23.50;57.30;;;;;;5073313;28;20170;-66
2021/07/29 12:28:50;;;;;;;7.10;2.72;;;23.50;56.90;;;;;;5073530;28;20181;-66
2021/07/29 12:31:19;;;;;;;7.72;2.35;;;23.50;56.70;;;;;;5072326;28;20611;-71
2021/07/29 12:33:59;;;;;;;8.27;2.53;;;23.50;56.40;;;;;;5073769;28;20198;-71
2021/07/29 12:36:40;;;;;;;4.03;2.47;;;23.50;56.10;;;;;;5073320;28;20265;-70
2021/07/29 12:39:06;;;;;;;6.43;2.28;;;23.60;56.10;;;;;;5072859;28;20221;-70
2021/07/29 12:41:33;;;;;;;4.38;2.30;;;23.60;56.20;;;;;;5072963;28;20531;-69
2021/07/29 12:44:09;;;;;;;8.48;2.35;;;23.60;56.30;;;;;;5072690;28;20227;-70
2021/07/29 12:46:35;;;;;;;4.72;2.20;;;23.70;56.20;;;;;;5073095;28;20560;-68
2021/07/29 12:49:01;;;;;;;5.30;2.50;;;23.60;56.30;;;;;;5072132;28;20193;-68